sensor_id;sensor_type;location;lat;lon;timestamp;temperature;humidity
26964;DHT22;14521;48.148;-1.656;2023-07-29T00:03:03;23.90;99.60
26964;DHT22;14521;48.148;-1.656;2023-07-29T00:06:26;23.90;99.50
26964;DHT22;14521;48.148;-1.656;2023-07-29T00:09:48;23.90;99.60
26964;DHT22;14521;48.148;-1.656;2023-07-29T00:13:11;23.90;99.60
26964;DHT22;14521;48.148;-1.656;2023-07-29T00:16:33;23.90;99.60
26964;DHT22;14521;48.148;-1.656;2023-07-29T00:19:56;23.90;99.60
26964;DHT22;14521;48.148;-1.656;2023-07-29T00:23:18;23.90;99.60
26964;DHT22;14521;48.148;-1.656;2023-07-29T00:26:41;23.90;99.60
26964;DHT22;14521;48.148;-1.656;2023-07-29T00:30:03;23.90;99.60
26964;DHT22;14521;48.148;-1.656;2023-07-29T00:33:26;23.90;99.60
26964;DHT22;14521;48.148;-1.656;2023-07-29T00:36:49;23.90;99.60
26964;DHT22;14521;48.148;-1.656;2023-07-29T00:40:21;23.90;99.50
26964;DHT22;14521;48.148;-1.656;2023-07-29T00:43:44;23.90;99.60
26964;DHT22;14521;48.148;-1.656;2023-07-29T00:47:07;23.90;99.60
26964;DHT22;14521;48.148;-1.656;2023-07-29T00:50:30;23.80;99.60
26964;DHT22;14521;48.148;-1.656;2023-07-29T00:53:55;23.90;99.60
26964;DHT22;14521;48.148;-1.656;2023-07-29T00:57:18;23.80;99.50
26964;DHT22;14521;48.148;-1.656;2023-07-29T01:00:41;23.90;99.60
26964;DHT22;14521;48.148;-1.656;2023-07-29T01:04:04;23.90;99.60
26964;DHT22;14521;48.148;-1.656;2023-07-29T01:07:36;23.80;99.60
26964;DHT22;14521;48.148;-1.656;2023-07-29T01:15:14;23.80;99.50
26964;DHT22;14521;48.148;-1.656;2023-07-29T01:18:43;23.90;99.60
26964;DHT22;14521;48.148;-1.656;2023-07-29T01:22:08;23.80;99.90
26964;DHT22;14521;48.148;-1.656;2023-07-29T01:25:31;23.80;99.60
26964;DHT22;14521;48.148;-1.656;2023-07-29T01:28:53;23.80;99.60
26964;DHT22;14521;48.148;-1.656;2023-07-29T01:36:14;23.80;99.60
26964;DHT22;14521;48.148;-1.656;2023-07-29T01:39:39;23.80;99.60
26964;DHT22;14521;48.148;-1.656;2023-07-29T01:43:01;23.80;99.60
26964;DHT22;14521;48.148;-1.656;2023-07-29T01:46:25;23.80;99.70
26964;DHT22;14521;48.148;-1.656;2023-07-29T01:49:47;23.80;99.60
26964;DHT22;14521;48.148;-1.656;2023-07-29T01:53:09;23.80;99.60
26964;DHT22;14521;48.148;-1.656;2023-07-29T01:56:32;23.80;99.70
26964;DHT22;14521;48.148;-1.656;2023-07-29T01:59:55;23.80;99.70
26964;DHT22;14521;48.148;-1.656;2023-07-29T02:03:17;23.80;99.70
26964;DHT22;14521;48.148;-1.656;2023-07-29T02:06:40;23.90;99.70
26964;DHT22;14521;48.148;-1.656;2023-07-29T02:10:02;23.80;99.70
26964;DHT22;14521;48.148;-1.656;2023-07-29T02:13:25;23.80;99.70
26964;DHT22;14521;48.148;-1.656;2023-07-29T02:16:47;23.80;99.80
26964;DHT22;14521;48.148;-1.656;2023-07-29T02:20:10;23.80;99.80
26964;DHT22;14521;48.148;-1.656;2023-07-29T02:23:33;23.80;99.80
26964;DHT22;14521;48.148;-1.656;2023-07-29T02:26:55;23.80;99.80
26964;DHT22;14521;48.148;-1.656;2023-07-29T02:30:17;23.80;99.80
26964;DHT22;14521;48.148;-1.656;2023-07-29T02:33:40;23.80;99.80
26964;DHT22;14521;48.148;-1.656;2023-07-29T02:37:02;23.80;99.80
26964;DHT22;14521;48.148;-1.656;2023-07-29T02:40:24;23.80;99.80
26964;DHT22;14521;48.148;-1.656;2023-07-29T02:43:49;23.80;99.90
26964;DHT22;14521;48.148;-1.656;2023-07-29T02:47:12;23.80;99.90
26964;DHT22;14521;48.148;-1.656;2023-07-29T02:50:34;23.80;99.90
26964;DHT22;14521;48.148;-1.656;2023-07-29T02:53:57;23.80;99.90
26964;DHT22;14521;48.148;-1.656;2023-07-29T02:57:20;23.80;99.90
26964;DHT22;14521;48.148;-1.656;2023-07-29T03:00:42;23.80;99.90
26964;DHT22;14521;48.148;-1.656;2023-07-29T03:04:05;23.80;99.90
26964;DHT22;14521;48.148;-1.656;2023-07-29T03:07:28;23.80;99.90
26964;DHT22;14521;48.148;-1.656;2023-07-29T03:10:50;23.80;99.90
26964;DHT22;14521;48.148;-1.656;2023-07-29T03:14:13;23.80;99.90
26964;DHT22;14521;48.148;-1.656;2023-07-29T03:17:35;23.80;99.90
26964;DHT22;14521;48.148;-1.656;2023-07-29T03:20:57;23.80;99.90
26964;DHT22;14521;48.148;-1.656;2023-07-29T03:24:19;23.80;99.90
26964;DHT22;14521;48.148;-1.656;2023-07-29T03:27:42;23.80;99.90
26964;DHT22;14521;48.148;-1.656;2023-07-29T03:31:05;23.80;99.90
26964;DHT22;14521;48.148;-1.656;2023-07-29T03:34:28;23.80;99.90
26964;DHT22;14521;48.148;-1.656;2023-07-29T03:37:50;23.80;99.90
26964;DHT22;14521;48.148;-1.656;2023-07-29T03:41:13;23.80;99.90
26964;DHT22;14521;48.148;-1.656;2023-07-29T03:44:35;23.80;99.90
26964;DHT22;14521;48.148;-1.656;2023-07-29T03:47:57;23.80;99.90
26964;DHT22;14521;48.148;-1.656;2023-07-29T03:51:20;23.80;99.90
26964;DHT22;14521;48.148;-1.656;2023-07-29T03:54:43;23.80;99.90
26964;DHT22;14521;48.148;-1.656;2023-07-29T03:58:06;23.80;99.90
26964;DHT22;14521;48.148;-1.656;2023-07-29T04:01:28;23.80;99.90
26964;DHT22;14521;48.148;-1.656;2023-07-29T04:04:51;23.80;99.90
26964;DHT22;14521;48.148;-1.656;2023-07-29T04:08:14;23.80;99.90
26964;DHT22;14521;48.148;-1.656;2023-07-29T04:11:36;23.80;99.90
26964;DHT22;14521;48.148;-1.656;2023-07-29T04:14:59;23.70;99.90
26964;DHT22;14521;48.148;-1.656;2023-07-29T04:18:21;23.80;99.90
26964;DHT22;14521;48.148;-1.656;2023-07-29T04:21:44;23.80;99.90
26964;DHT22;14521;48.148;-1.656;2023-07-29T04:25:06;23.80;99.90
26964;DHT22;14521;48.148;-1.656;2023-07-29T04:28:29;23.70;99.90
26964;DHT22;14521;48.148;-1.656;2023-07-29T04:31:51;23.80;99.90
26964;DHT22;14521;48.148;-1.656;2023-07-29T04:35:14;23.80;99.90
26964;DHT22;14521;48.148;-1.656;2023-07-29T04:38:37;23.70;99.90
26964;DHT22;14521;48.148;-1.656;2023-07-29T04:41:59;23.70;99.90
26964;DHT22;14521;48.148;-1.656;2023-07-29T04:45:23;23.70;99.90
26964;DHT22;14521;48.148;-1.656;2023-07-29T04:48:45;23.80;99.90
26964;DHT22;14521;48.148;-1.656;2023-07-29T04:52:07;23.70;99.90
26964;DHT22;14521;48.148;-1.656;2023-07-29T04:55:30;23.70;99.90
26964;DHT22;14521;48.148;-1.656;2023-07-29T04:58:52;23.70;99.90
26964;DHT22;14521;48.148;-1.656;2023-07-29T05:02:15;23.70;99.90
26964;DHT22;14521;48.148;-1.656;2023-07-29T05:05:37;23.70;99.90
26964;DHT22;14521;48.148;-1.656;2023-07-29T05:09:15;23.80;99.90
26964;DHT22;14521;48.148;-1.656;2023-07-29T05:12:38;23.70;99.90
26964;DHT22;14521;48.148;-1.656;2023-07-29T05:16:00;23.70;99.90
26964;DHT22;14521;48.148;-1.656;2023-07-29T05:19:23;23.80;99.90
26964;DHT22;14521;48.148;-1.656;2023-07-29T05:22:45;23.70;99.90
26964;DHT22;14521;48.148;-1.656;2023-07-29T05:26:07;23.70;99.90
26964;DHT22;14521;48.148;-1.656;2023-07-29T05:29:30;23.70;99.90
26964;DHT22;14521;48.148;-1.656;2023-07-29T05:32:53;23.70;99.90
26964;DHT22;14521;48.148;-1.656;2023-07-29T05:36:15;23.80;99.90
26964;DHT22;14521;48.148;-1.656;2023-07-29T05:39:37;23.70;99.90
26964;DHT22;14521;48.148;-1.656;2023-07-29T05:43:00;23.70;99.90
26964;DHT22;14521;48.148;-1.656;2023-07-29T05:46:22;23.70;99.90
26964;DHT22;14521;48.148;-1.656;2023-07-29T05:49:44;23.70;99.90
26964;DHT22;14521;48.148;-1.656;2023-07-29T05:53:07;23.80;99.90
26964;DHT22;14521;48.148;-1.656;2023-07-29T05:56:29;23.70;99.90
26964;DHT22;14521;48.148;-1.656;2023-07-29T05:59:53;23.70;99.90
26964;DHT22;14521;48.148;-1.656;2023-07-29T06:03:15;23.80;99.90
26964;DHT22;14521;48.148;-1.656;2023-07-29T06:06:38;23.80;99.90
26964;DHT22;14521;48.148;-1.656;2023-07-29T06:10:00;23.80;99.90
26964;DHT22;14521;48.148;-1.656;2023-07-29T06:13:23;23.80;99.90
26964;DHT22;14521;48.148;-1.656;2023-07-29T06:16:45;23.80;99.90
26964;DHT22;14521;48.148;-1.656;2023-07-29T06:20:08;23.80;99.90
26964;DHT22;14521;48.148;-1.656;2023-07-29T06:23:30;23.90;99.90
26964;DHT22;14521;48.148;-1.656;2023-07-29T06:26:52;23.90;99.90
26964;DHT22;14521;48.148;-1.656;2023-07-29T06:30:15;23.90;99.90
26964;DHT22;14521;48.148;-1.656;2023-07-29T06:33:37;23.80;99.90
26964;DHT22;14521;48.148;-1.656;2023-07-29T06:36:59;23.80;99.90
26964;DHT22;14521;48.148;-1.656;2023-07-29T06:40:22;23.80;99.90
26964;DHT22;14521;48.148;-1.656;2023-07-29T06:43:44;23.80;99.90
26964;DHT22;14521;48.148;-1.656;2023-07-29T06:47:06;23.80;99.90
26964;DHT22;14521;48.148;-1.656;2023-07-29T06:50:31;23.90;99.90
26964;DHT22;14521;48.148;-1.656;2023-07-29T06:53:53;23.90;99.90
26964;DHT22;14521;48.148;-1.656;2023-07-29T06:57:15;24.00;99.90
26964;DHT22;14521;48.148;-1.656;2023-07-29T07:00:37;24.00;99.90
26964;DHT22;14521;48.148;-1.656;2023-07-29T07:04:00;24.00;99.90
26964;DHT22;14521;48.148;-1.656;2023-07-29T07:07:22;24.10;99.90
26964;DHT22;14521;48.148;-1.656;2023-07-29T07:10:46;24.20;99.90
26964;DHT22;14521;48.148;-1.656;2023-07-29T07:14:09;24.30;99.90
26964;DHT22;14521;48.148;-1.656;2023-07-29T07:17:31;24.40;99.90
26964;DHT22;14521;48.148;-1.656;2023-07-29T07:20:53;24.40;99.90
26964;DHT22;14521;48.148;-1.656;2023-07-29T07:24:16;24.40;99.90
26964;DHT22;14521;48.148;-1.656;2023-07-29T07:27:38;24.30;99.90
26964;DHT22;14521;48.148;-1.656;2023-07-29T07:31:00;24.20;99.90
26964;DHT22;14521;48.148;-1.656;2023-07-29T07:34:22;24.20;99.90
26964;DHT22;14521;48.148;-1.656;2023-07-29T07:37:45;24.20;99.90
26964;DHT22;14521;48.148;-1.656;2023-07-29T07:41:07;24.20;99.90
26964;DHT22;14521;48.148;-1.656;2023-07-29T07:44:29;24.20;99.90
26964;DHT22;14521;48.148;-1.656;2023-07-29T07:47:52;24.10;99.90
26964;DHT22;14521;48.148;-1.656;2023-07-29T07:51:15;24.10;99.90
26964;DHT22;14521;48.148;-1.656;2023-07-29T07:54:38;24.10;99.90
26964;DHT22;14521;48.148;-1.656;2023-07-29T07:58:00;24.20;99.90
26964;DHT22;14521;48.148;-1.656;2023-07-29T08:01:22;24.20;99.90
26964;DHT22;14521;48.148;-1.656;2023-07-29T08:04:44;24.20;99.90
26964;DHT22;14521;48.148;-1.656;2023-07-29T08:08:07;24.20;99.90
26964;DHT22;14521;48.148;-1.656;2023-07-29T08:11:29;24.10;99.90
26964;DHT22;14521;48.148;-1.656;2023-07-29T08:14:51;23.90;99.90
26964;DHT22;14521;48.148;-1.656;2023-07-29T08:18:13;23.90;99.90
26964;DHT22;14521;48.148;-1.656;2023-07-29T08:21:36;24.00;99.90
26964;DHT22;14521;48.148;-1.656;2023-07-29T08:24:58;24.00;99.90
26964;DHT22;14521;48.148;-1.656;2023-07-29T08:28:20;24.10;99.40
26964;DHT22;14521;48.148;-1.656;2023-07-29T08:31:43;24.10;98.90
26964;DHT22;14521;48.148;-1.656;2023-07-29T08:35:05;24.10;98.90
26964;DHT22;14521;48.148;-1.656;2023-07-29T08:38:28;24.10;99.30
26964;DHT22;14521;48.148;-1.656;2023-07-29T08:45:19;24.10;98.90
26964;DHT22;14521;48.148;-1.656;2023-07-29T08:48:43;24.10;99.10
26964;DHT22;14521;48.148;-1.656;2023-07-29T08:52:06;24.20;98.80
26964;DHT22;14521;48.148;-1.656;2023-07-29T08:55:29;24.20;98.50
26964;DHT22;14521;48.148;-1.656;2023-07-29T08:58:52;24.10;98.70
26964;DHT22;14521;48.148;-1.656;2023-07-29T09:02:15;24.20;98.80
26964;DHT22;14521;48.148;-1.656;2023-07-29T09:05:37;24.20;98.10
26964;DHT22;14521;48.148;-1.656;2023-07-29T09:09:00;24.20;98.20
26964;DHT22;14521;48.148;-1.656;2023-07-29T09:12:22;24.20;97.70
26964;DHT22;14521;48.148;-1.656;2023-07-29T09:15:45;24.20;97.80
26964;DHT22;14521;48.148;-1.656;2023-07-29T09:19:08;24.20;97.40
26964;DHT22;14521;48.148;-1.656;2023-07-29T09:22:31;24.20;97.90
26964;DHT22;14521;48.148;-1.656;2023-07-29T09:26:04;24.20;97.30
26964;DHT22;14521;48.148;-1.656;2023-07-29T09:29:28;24.30;96.90
26964;DHT22;14521;48.148;-1.656;2023-07-29T09:32:57;24.20;96.80
26964;DHT22;14521;48.148;-1.656;2023-07-29T09:36:21;24.20;96.90
26964;DHT22;14521;48.148;-1.656;2023-07-29T09:39:47;24.20;95.50
26964;DHT22;14521;48.148;-1.656;2023-07-29T09:43:10;24.20;94.90
26964;DHT22;14521;48.148;-1.656;2023-07-29T09:46:37;24.20;96.10
26964;DHT22;14521;48.148;-1.656;2023-07-29T09:50:00;24.20;95.20
26964;DHT22;14521;48.148;-1.656;2023-07-29T09:53:24;24.30;96.20
26964;DHT22;14521;48.148;-1.656;2023-07-29T09:56:47;24.20;94.90
26964;DHT22;14521;48.148;-1.656;2023-07-29T10:00:13;24.20;93.80
26964;DHT22;14521;48.148;-1.656;2023-07-29T10:03:36;24.20;93.50
26964;DHT22;14521;48.148;-1.656;2023-07-29T10:06:59;24.20;93.10
26964;DHT22;14521;48.148;-1.656;2023-07-29T10:10:23;24.20;94.20
26964;DHT22;14521;48.148;-1.656;2023-07-29T10:13:46;24.20;93.60
26964;DHT22;14521;48.148;-1.656;2023-07-29T10:17:26;24.20;93.10
26964;DHT22;14521;48.148;-1.656;2023-07-29T10:20:51;24.20;92.90
26964;DHT22;14521;48.148;-1.656;2023-07-29T10:24:15;24.20;92.50
26964;DHT22;14521;48.148;-1.656;2023-07-29T10:28:04;24.20;94.60
26964;DHT22;14521;48.148;-1.656;2023-07-29T10:31:28;24.10;92.10
26964;DHT22;14521;48.148;-1.656;2023-07-29T10:34:51;24.10;91.00
26964;DHT22;14521;48.148;-1.656;2023-07-29T10:38:14;24.00;90.80
26964;DHT22;14521;48.148;-1.656;2023-07-29T10:42:00;23.90;90.50
26964;DHT22;14521;48.148;-1.656;2023-07-29T10:45:23;23.90;90.50
26964;DHT22;14521;48.148;-1.656;2023-07-29T10:48:52;24.00;91.30
26964;DHT22;14521;48.148;-1.656;2023-07-29T10:52:16;24.00;91.60
26964;DHT22;14521;48.148;-1.656;2023-07-29T10:55:38;24.10;91.70
26964;DHT22;14521;48.148;-1.656;2023-07-29T11:02:38;24.30;91.30
26964;DHT22;14521;48.148;-1.656;2023-07-29T11:06:04;24.30;91.80
26964;DHT22;14521;48.148;-1.656;2023-07-29T11:13:18;24.40;92.40
26964;DHT22;14521;48.148;-1.656;2023-07-29T11:16:41;24.40;91.00
26964;DHT22;14521;48.148;-1.656;2023-07-29T11:20:04;24.50;91.80
26964;DHT22;14521;48.148;-1.656;2023-07-29T11:23:36;24.50;91.00
26964;DHT22;14521;48.148;-1.656;2023-07-29T11:26:59;24.50;90.90
26964;DHT22;14521;48.148;-1.656;2023-07-29T11:30:22;24.50;90.50
26964;DHT22;14521;48.148;-1.656;2023-07-29T11:33:53;24.40;90.80
26964;DHT22;14521;48.148;-1.656;2023-07-29T11:37:16;24.40;91.10
26964;DHT22;14521;48.148;-1.656;2023-07-29T11:40:38;24.40;91.30
26964;DHT22;14521;48.148;-1.656;2023-07-29T11:44:01;24.40;90.70
26964;DHT22;14521;48.148;-1.656;2023-07-29T11:47:23;24.40;91.10
26964;DHT22;14521;48.148;-1.656;2023-07-29T11:50:45;24.30;91.20
26964;DHT22;14521;48.148;-1.656;2023-07-29T11:54:08;24.40;90.90
26964;DHT22;14521;48.148;-1.656;2023-07-29T11:57:33;24.40;91.60
26964;DHT22;14521;48.148;-1.656;2023-07-29T12:00:56;24.40;90.80
26964;DHT22;14521;48.148;-1.656;2023-07-29T12:04:19;24.50;90.70
26964;DHT22;14521;48.148;-1.656;2023-07-29T12:07:42;24.50;91.10
26964;DHT22;14521;48.148;-1.656;2023-07-29T12:11:05;24.50;90.20
26964;DHT22;14521;48.148;-1.656;2023-07-29T12:14:29;24.50;90.00
26964;DHT22;14521;48.148;-1.656;2023-07-29T12:17:53;24.40;89.10
26964;DHT22;14521;48.148;-1.656;2023-07-29T12:21:19;24.40;89.00
26964;DHT22;14521;48.148;-1.656;2023-07-29T12:24:41;24.40;87.60
26964;DHT22;14521;48.148;-1.656;2023-07-29T12:28:05;24.30;88.80
26964;DHT22;14521;48.148;-1.656;2023-07-29T12:31:32;24.30;90.30
26964;DHT22;14521;48.148;-1.656;2023-07-29T12:34:54;24.40;90.80
26964;DHT22;14521;48.148;-1.656;2023-07-29T12:38:21;24.30;90.70
26964;DHT22;14521;48.148;-1.656;2023-07-29T12:41:43;24.40;90.90
26964;DHT22;14521;48.148;-1.656;2023-07-29T12:45:06;24.30;90.40
26964;DHT22;14521;48.148;-1.656;2023-07-29T12:48:29;24.30;90.10
26964;DHT22;14521;48.148;-1.656;2023-07-29T12:51:51;24.30;90.00
26964;DHT22;14521;48.148;-1.656;2023-07-29T12:55:13;24.30;89.90
26964;DHT22;14521;48.148;-1.656;2023-07-29T12:58:35;24.30;90.40
26964;DHT22;14521;48.148;-1.656;2023-07-29T13:01:58;24.20;90.00
26964;DHT22;14521;48.148;-1.656;2023-07-29T13:05:20;24.20;90.20
26964;DHT22;14521;48.148;-1.656;2023-07-29T13:08:43;24.30;90.40
26964;DHT22;14521;48.148;-1.656;2023-07-29T13:12:06;24.20;90.30
26964;DHT22;14521;48.148;-1.656;2023-07-29T13:15:29;24.20;90.10
26964;DHT22;14521;48.148;-1.656;2023-07-29T13:18:51;24.20;90.00
26964;DHT22;14521;48.148;-1.656;2023-07-29T13:22:13;24.20;89.70
26964;DHT22;14521;48.148;-1.656;2023-07-29T13:25:35;24.20;89.40
26964;DHT22;14521;48.148;-1.656;2023-07-29T13:28:57;24.20;89.60
26964;DHT22;14521;48.148;-1.656;2023-07-29T13:32:20;24.20;90.60
26964;DHT22;14521;48.148;-1.656;2023-07-29T13:35:42;24.20;90.20
26964;DHT22;14521;48.148;-1.656;2023-07-29T13:39:04;24.20;90.50
26964;DHT22;14521;48.148;-1.656;2023-07-29T13:42:27;24.20;90.70
26964;DHT22;14521;48.148;-1.656;2023-07-29T13:45:49;24.20;90.20
26964;DHT22;14521;48.148;-1.656;2023-07-29T13:49:12;24.20;90.10
26964;DHT22;14521;48.148;-1.656;2023-07-29T13:52:36;24.20;90.10
26964;DHT22;14521;48.148;-1.656;2023-07-29T13:55:58;24.30;90.00
26964;DHT22;14521;48.148;-1.656;2023-07-29T13:59:20;24.20;90.00
26964;DHT22;14521;48.148;-1.656;2023-07-29T14:02:43;24.20;90.40
26964;DHT22;14521;48.148;-1.656;2023-07-29T14:06:05;24.30;90.40
26964;DHT22;14521;48.148;-1.656;2023-07-29T14:09:28;24.30;90.00
26964;DHT22;14521;48.148;-1.656;2023-07-29T14:12:50;24.40;90.10
26964;DHT22;14521;48.148;-1.656;2023-07-29T14:16:12;24.30;90.60
26964;DHT22;14521;48.148;-1.656;2023-07-29T14:19:35;24.40;90.90
26964;DHT22;14521;48.148;-1.656;2023-07-29T14:22:57;24.30;90.70
26964;DHT22;14521;48.148;-1.656;2023-07-29T14:26:20;24.30;90.60
26964;DHT22;14521;48.148;-1.656;2023-07-29T14:29:42;24.40;90.50
26964;DHT22;14521;48.148;-1.656;2023-07-29T14:33:04;24.40;90.50
26964;DHT22;14521;48.148;-1.656;2023-07-29T14:36:27;24.40;90.10
26964;DHT22;14521;48.148;-1.656;2023-07-29T14:39:50;24.40;90.40
26964;DHT22;14521;48.148;-1.656;2023-07-29T14:43:13;24.40;90.50
26964;DHT22;14521;48.148;-1.656;2023-07-29T14:46:35;24.40;90.70
26964;DHT22;14521;48.148;-1.656;2023-07-29T14:49:58;24.40;90.70
26964;DHT22;14521;48.148;-1.656;2023-07-29T14:53:21;24.40;90.90
26964;DHT22;14521;48.148;-1.656;2023-07-29T14:56:43;24.40;90.90
26964;DHT22;14521;48.148;-1.656;2023-07-29T15:00:06;24.40;90.90
26964;DHT22;14521;48.148;-1.656;2023-07-29T15:03:29;24.40;90.90
26964;DHT22;14521;48.148;-1.656;2023-07-29T15:06:51;24.40;90.90
26964;DHT22;14521;48.148;-1.656;2023-07-29T15:10:15;24.40;90.90
26964;DHT22;14521;48.148;-1.656;2023-07-29T15:13:40;24.40;90.90
26964;DHT22;14521;48.148;-1.656;2023-07-29T15:17:02;24.40;91.10
26964;DHT22;14521;48.148;-1.656;2023-07-29T15:20:24;24.40;90.80
26964;DHT22;14521;48.148;-1.656;2023-07-29T15:23:46;24.30;90.00
26964;DHT22;14521;48.148;-1.656;2023-07-29T15:27:10;24.30;90.00
26964;DHT22;14521;48.148;-1.656;2023-07-29T15:30:35;24.30;90.00
26964;DHT22;14521;48.148;-1.656;2023-07-29T15:33:58;24.30;89.80
26964;DHT22;14521;48.148;-1.656;2023-07-29T15:37:20;24.30;89.80
26964;DHT22;14521;48.148;-1.656;2023-07-29T15:40:42;24.20;90.10
26964;DHT22;14521;48.148;-1.656;2023-07-29T15:44:05;24.30;90.60
26964;DHT22;14521;48.148;-1.656;2023-07-29T15:47:27;24.20;92.00
26964;DHT22;14521;48.148;-1.656;2023-07-29T15:50:49;24.20;92.50
26964;DHT22;14521;48.148;-1.656;2023-07-29T15:54:11;24.20;93.50
26964;DHT22;14521;48.148;-1.656;2023-07-29T15:57:34;24.20;93.60
26964;DHT22;14521;48.148;-1.656;2023-07-29T16:00:56;24.20;94.20
26964;DHT22;14521;48.148;-1.656;2023-07-29T16:04:18;24.30;95.90
26964;DHT22;14521;48.148;-1.656;2023-07-29T16:07:40;24.20;95.60
26964;DHT22;14521;48.148;-1.656;2023-07-29T16:11:03;24.30;99.30
26964;DHT22;14521;48.148;-1.656;2023-07-29T16:14:25;24.30;99.90
26964;DHT22;14521;48.148;-1.656;2023-07-29T16:17:48;24.40;99.90
26964;DHT22;14521;48.148;-1.656;2023-07-29T16:21:14;24.30;99.90
26964;DHT22;14521;48.148;-1.656;2023-07-29T16:24:36;24.40;99.80
26964;DHT22;14521;48.148;-1.656;2023-07-29T16:27:59;24.40;99.80
26964;DHT22;14521;48.148;-1.656;2023-07-29T16:31:21;24.40;99.40
26964;DHT22;14521;48.148;-1.656;2023-07-29T16:34:43;24.40;98.90
26964;DHT22;14521;48.148;-1.656;2023-07-29T16:38:06;24.40;98.50
26964;DHT22;14521;48.148;-1.656;2023-07-29T16:41:28;24.40;98.60
26964;DHT22;14521;48.148;-1.656;2023-07-29T16:45:10;24.40;98.90
26964;DHT22;14521;48.148;-1.656;2023-07-29T16:48:32;24.40;98.70
26964;DHT22;14521;48.148;-1.656;2023-07-29T16:51:55;24.40;98.70
26964;DHT22;14521;48.148;-1.656;2023-07-29T16:55:17;24.30;96.20
26964;DHT22;14521;48.148;-1.656;2023-07-29T16:58:39;24.00;96.70
26964;DHT22;14521;48.148;-1.656;2023-07-29T17:02:01;23.80;97.20
26964;DHT22;14521;48.148;-1.656;2023-07-29T17:05:29;23.60;97.90
26964;DHT22;14521;48.148;-1.656;2023-07-29T17:08:51;23.50;98.50
26964;DHT22;14521;48.148;-1.656;2023-07-29T17:12:14;23.40;98.70
26964;DHT22;14521;48.148;-1.656;2023-07-29T17:15:36;23.40;98.90
26964;DHT22;14521;48.148;-1.656;2023-07-29T17:18:59;23.40;99.00
26964;DHT22;14521;48.148;-1.656;2023-07-29T17:22:23;23.50;98.50
26964;DHT22;14521;48.148;-1.656;2023-07-29T17:25:45;23.40;98.60
26964;DHT22;14521;48.148;-1.656;2023-07-29T17:29:07;23.20;98.50
26964;DHT22;14521;48.148;-1.656;2023-07-29T17:32:30;23.10;98.50
26964;DHT22;14521;48.148;-1.656;2023-07-29T17:35:52;23.00;98.80
26964;DHT22;14521;48.148;-1.656;2023-07-29T17:39:17;22.90;98.80
26964;DHT22;14521;48.148;-1.656;2023-07-29T17:42:39;22.90;99.20
26964;DHT22;14521;48.148;-1.656;2023-07-29T17:46:01;22.90;99.20
26964;DHT22;14521;48.148;-1.656;2023-07-29T17:49:23;22.90;99.40
26964;DHT22;14521;48.148;-1.656;2023-07-29T17:52:46;22.80;99.60
26964;DHT22;14521;48.148;-1.656;2023-07-29T17:56:08;22.90;99.90
26964;DHT22;14521;48.148;-1.656;2023-07-29T17:59:32;22.90;99.80
26964;DHT22;14521;48.148;-1.656;2023-07-29T18:02:54;22.90;99.60
26964;DHT22;14521;48.148;-1.656;2023-07-29T18:06:18;22.90;99.90
26964;DHT22;14521;48.148;-1.656;2023-07-29T18:09:40;22.90;99.90
26964;DHT22;14521;48.148;-1.656;2023-07-29T18:13:02;22.80;99.90
26964;DHT22;14521;48.148;-1.656;2023-07-29T18:16:27;22.80;99.90
26964;DHT22;14521;48.148;-1.656;2023-07-29T18:19:49;22.80;99.90
26964;DHT22;14521;48.148;-1.656;2023-07-29T18:23:11;22.80;99.90
26964;DHT22;14521;48.148;-1.656;2023-07-29T18:26:34;22.90;99.90
26964;DHT22;14521;48.148;-1.656;2023-07-29T18:29:56;22.90;99.90
26964;DHT22;14521;48.148;-1.656;2023-07-29T18:33:19;22.90;99.90
26964;DHT22;14521;48.148;-1.656;2023-07-29T18:36:41;22.90;99.90
26964;DHT22;14521;48.148;-1.656;2023-07-29T18:40:07;22.90;99.90
26964;DHT22;14521;48.148;-1.656;2023-07-29T18:43:30;22.90;99.90
26964;DHT22;14521;48.148;-1.656;2023-07-29T18:46:52;22.80;99.90
26964;DHT22;14521;48.148;-1.656;2023-07-29T18:50:16;22.60;99.90
26964;DHT22;14521;48.148;-1.656;2023-07-29T18:53:38;22.60;99.90
26964;DHT22;14521;48.148;-1.656;2023-07-29T18:57:01;22.70;99.90
26964;DHT22;14521;48.148;-1.656;2023-07-29T19:00:23;22.80;99.90
26964;DHT22;14521;48.148;-1.656;2023-07-29T19:03:45;23.10;99.90
26964;DHT22;14521;48.148;-1.656;2023-07-29T19:07:08;23.30;99.90
26964;DHT22;14521;48.148;-1.656;2023-07-29T19:10:30;23.40;99.70
26964;DHT22;14521;48.148;-1.656;2023-07-29T19:13:52;23.50;99.10
26964;DHT22;14521;48.148;-1.656;2023-07-29T19:17:16;23.60;98.80
26964;DHT22;14521;48.148;-1.656;2023-07-29T19:20:38;23.70;98.60
26964;DHT22;14521;48.148;-1.656;2023-07-29T19:24:00;23.70;98.40
26964;DHT22;14521;48.148;-1.656;2023-07-29T19:27:23;23.80;98.30
26964;DHT22;14521;48.148;-1.656;2023-07-29T19:30:45;23.80;98.20
26964;DHT22;14521;48.148;-1.656;2023-07-29T19:34:08;23.90;98.10
26964;DHT22;14521;48.148;-1.656;2023-07-29T19:37:30;23.90;97.90
26964;DHT22;14521;48.148;-1.656;2023-07-29T19:40:52;23.90;97.80
26964;DHT22;14521;48.148;-1.656;2023-07-29T19:44:15;23.90;97.60
26964;DHT22;14521;48.148;-1.656;2023-07-29T19:47:44;24.00;97.60
26964;DHT22;14521;48.148;-1.656;2023-07-29T19:51:06;24.00;97.40
26964;DHT22;14521;48.148;-1.656;2023-07-29T19:54:29;24.00;97.40
26964;DHT22;14521;48.148;-1.656;2023-07-29T19:57:51;24.10;97.70
26964;DHT22;14521;48.148;-1.656;2023-07-29T20:01:13;24.00;97.30
26964;DHT22;14521;48.148;-1.656;2023-07-29T20:04:37;24.00;97.30
26964;DHT22;14521;48.148;-1.656;2023-07-29T20:07:59;24.10;97.20
26964;DHT22;14521;48.148;-1.656;2023-07-29T20:11:21;24.00;97.10
26964;DHT22;14521;48.148;-1.656;2023-07-29T20:14:44;24.10;97.10
26964;DHT22;14521;48.148;-1.656;2023-07-29T20:18:06;24.10;97.00
26964;DHT22;14521;48.148;-1.656;2023-07-29T20:21:28;24.10;96.90
26964;DHT22;14521;48.148;-1.656;2023-07-29T20:24:51;24.10;96.80
26964;DHT22;14521;48.148;-1.656;2023-07-29T20:28:13;24.10;96.80
26964;DHT22;14521;48.148;-1.656;2023-07-29T20:31:37;24.10;96.80
26964;DHT22;14521;48.148;-1.656;2023-07-29T20:34:59;24.10;96.80
26964;DHT22;14521;48.148;-1.656;2023-07-29T20:38:22;24.10;96.70
26964;DHT22;14521;48.148;-1.656;2023-07-29T20:41:44;24.10;96.70
26964;DHT22;14521;48.148;-1.656;2023-07-29T20:45:07;24.10;96.60
26964;DHT22;14521;48.148;-1.656;2023-07-29T20:48:29;24.10;96.60
26964;DHT22;14521;48.148;-1.656;2023-07-29T20:51:53;24.10;96.60
26964;DHT22;14521;48.148;-1.656;2023-07-29T20:55:16;24.20;96.60
26964;DHT22;14521;48.148;-1.656;2023-07-29T20:58:39;24.20;96.60
26964;DHT22;14521;48.148;-1.656;2023-07-29T21:02:02;24.10;96.60
26964;DHT22;14521;48.148;-1.656;2023-07-29T21:05:26;24.20;97.00
26964;DHT22;14521;48.148;-1.656;2023-07-29T21:08:48;24.20;96.30
26964;DHT22;14521;48.148;-1.656;2023-07-29T21:12:10;24.10;96.20
26964;DHT22;14521;48.148;-1.656;2023-07-29T21:15:32;24.10;96.20
26964;DHT22;14521;48.148;-1.656;2023-07-29T21:18:54;24.10;96.30
26964;DHT22;14521;48.148;-1.656;2023-07-29T21:22:17;24.10;96.50